KBKE/BKE METAR and TAF weather

Enter ICAO airport designator
Station Type Date Time Source
KBKE METAR 2019/06/26 21:53 UTC NOAA

KBKE 262153Z AUTO 36006KT 10SM CLR 24/11 A2981 RMK AO2 LTG DSNT NE RAE08 SLP078 P0001 T02390106


Station Type Date Time Source
KBKE Decoded METAR 2019/06/26 21:53 UTC NOAA

BAKER MUNICIPAL AIRPORT, OR, United States (KBKE) 44-50N 117-49W 1024M
Jun 26, 2019 - 05:53 PM EDT / 2019.06.26 2153 UTC
Wind: from the N (360 degrees) at 7 MPH (6 KT):0
Visibility: 10 mile(s):0
Sky conditions: clear
Weather: Lightning observed
Precipitation last hour: 0.01 inches
Temperature: 75.0 F (23.9 C)
Dew Point: 51.1 F (10.6 C)
Relative Humidity: 43%
Pressure (altimeter): 29.81 in. Hg (1009 hPa)
ob: KBKE 262153Z AUTO 36006KT 10SM CLR 24/11 A2981 RMK AO2 LTG DSNT NE RAE08 SLP078 P0001 T02390106
cycle: 22

Station Type Date Time Source
KBKE TAF 2019/06/26 21:48 UTC NOAA

TAF
AMD KBKE 262045Z 2621/2718 17015KT P6SM VCTS BKN090CB
FM270300 30010G20KT P6SM VCSH BKN070
FM270600 VRB03KT P6SM VCSH SCT070

Example: see airport list